sensor_id;sensor_type;location;lat;lon;timestamp;P1;durP1;ratioP1;P2;durP2;ratioP2
72117;SDS011;59992;47.490;8.736;2024-01-16T00:01:43;10.10;;;3.70;;
72117;SDS011;59992;47.490;8.736;2024-01-16T00:04:33;15.20;;;5.90;;
72117;SDS011;59992;47.490;8.736;2024-01-16T00:07:27;11.20;;;4.30;;
72117;SDS011;59992;47.490;8.736;2024-01-16T00:10:20;9.80;;;4.20;;
72117;SDS011;59992;47.490;8.736;2024-01-16T00:13:10;16.30;;;5.80;;
72117;SDS011;59992;47.490;8.736;2024-01-16T00:16:01;16.60;;;6.20;;
72117;SDS011;59992;47.490;8.736;2024-01-16T00:18:52;13.00;;;4.10;;
72117;SDS011;59992;47.490;8.736;2024-01-16T00:21:42;15.30;;;5.50;;
72117;SDS011;59992;47.490;8.736;2024-01-16T00:24:34;18.30;;;6.50;;
72117;SDS011;59992;47.490;8.736;2024-01-16T00:27:24;15.50;;;5.60;;
72117;SDS011;59992;47.490;8.736;2024-01-16T00:30:15;17.30;;;5.30;;
72117;SDS011;59992;47.490;8.736;2024-01-16T00:33:06;20.60;;;7.80;;
72117;SDS011;59992;47.490;8.736;2024-01-16T00:35:57;16.40;;;6.10;;
72117;SDS011;59992;47.490;8.736;2024-01-16T00:38:48;15.70;;;5.80;;
72117;SDS011;59992;47.490;8.736;2024-01-16T00:41:38;19.00;;;7.70;;
72117;SDS011;59992;47.490;8.736;2024-01-16T00:44:28;15.50;;;5.60;;
72117;SDS011;59992;47.490;8.736;2024-01-16T00:47:19;13.30;;;5.40;;
72117;SDS011;59992;47.490;8.736;2024-01-16T00:50:09;13.60;;;4.90;;
72117;SDS011;59992;47.490;8.736;2024-01-16T00:53:01;12.30;;;4.90;;
72117;SDS011;59992;47.490;8.736;2024-01-16T00:55:51;14.70;;;4.40;;
72117;SDS011;59992;47.490;8.736;2024-01-16T00:58:41;13.80;;;4.60;;
72117;SDS011;59992;47.490;8.736;2024-01-16T01:01:31;13.60;;;5.10;;
72117;SDS011;59992;47.490;8.736;2024-01-16T01:04:22;13.50;;;5.30;;
72117;SDS011;59992;47.490;8.736;2024-01-16T01:07:16;14.80;;;5.80;;
72117;SDS011;59992;47.490;8.736;2024-01-16T01:10:06;16.00;;;5.90;;
72117;SDS011;59992;47.490;8.736;2024-01-16T01:12:57;15.20;;;5.70;;
72117;SDS011;59992;47.490;8.736;2024-01-16T01:15:48;17.90;;;6.60;;
72117;SDS011;59992;47.490;8.736;2024-01-16T01:18:39;16.60;;;6.20;;
72117;SDS011;59992;47.490;8.736;2024-01-16T01:21:29;13.90;;;5.60;;
72117;SDS011;59992;47.490;8.736;2024-01-16T01:24:19;12.90;;;5.10;;
72117;SDS011;59992;47.490;8.736;2024-01-16T01:27:10;13.30;;;5.40;;
72117;SDS011;59992;47.490;8.736;2024-01-16T01:30:00;13.90;;;5.40;;
72117;SDS011;59992;47.490;8.736;2024-01-16T01:32:52;14.00;;;5.50;;
72117;SDS011;59992;47.490;8.736;2024-01-16T01:35:42;14.50;;;5.30;;
72117;SDS011;59992;47.490;8.736;2024-01-16T01:38:32;10.30;;;4.40;;
72117;SDS011;59992;47.490;8.736;2024-01-16T01:41:22;10.80;;;4.50;;
72117;SDS011;59992;47.490;8.736;2024-01-16T01:44:13;10.90;;;4.50;;
72117;SDS011;59992;47.490;8.736;2024-01-16T01:47:03;12.80;;;4.90;;
72117;SDS011;59992;47.490;8.736;2024-01-16T01:49:54;14.90;;;6.10;;
72117;SDS011;59992;47.490;8.736;2024-01-16T01:52:45;14.60;;;5.60;;
72117;SDS011;59992;47.490;8.736;2024-01-16T01:55:36;14.40;;;5.70;;
72117;SDS011;59992;47.490;8.736;2024-01-16T01:58:26;10.70;;;4.40;;
72117;SDS011;59992;47.490;8.736;2024-01-16T02:01:17;16.60;;;5.30;;
72117;SDS011;59992;47.490;8.736;2024-01-16T02:04:08;13.60;;;4.90;;
72117;SDS011;59992;47.490;8.736;2024-01-16T02:06:58;14.60;;;5.20;;
72117;SDS011;59992;47.490;8.736;2024-01-16T02:09:50;13.80;;;5.00;;
72117;SDS011;59992;47.490;8.736;2024-01-16T02:12:41;15.10;;;5.30;;
72117;SDS011;59992;47.490;8.736;2024-01-16T02:15:32;13.20;;;4.60;;
72117;SDS011;59992;47.490;8.736;2024-01-16T02:18:23;14.20;;;5.00;;
72117;SDS011;59992;47.490;8.736;2024-01-16T02:21:14;11.00;;;4.90;;
72117;SDS011;59992;47.490;8.736;2024-01-16T02:24:07;12.20;;;4.90;;
72117;SDS011;59992;47.490;8.736;2024-01-16T02:26:59;14.90;;;5.10;;
72117;SDS011;59992;47.490;8.736;2024-01-16T02:29:49;11.00;;;4.80;;
72117;SDS011;59992;47.490;8.736;2024-01-16T02:32:40;9.50;;;4.20;;
72117;SDS011;59992;47.490;8.736;2024-01-16T02:35:30;10.10;;;4.70;;
72117;SDS011;59992;47.490;8.736;2024-01-16T02:38:21;11.10;;;4.50;;
72117;SDS011;59992;47.490;8.736;2024-01-16T02:41:13;15.10;;;5.00;;
72117;SDS011;59992;47.490;8.736;2024-01-16T02:44:04;14.10;;;5.20;;
72117;SDS011;59992;47.490;8.736;2024-01-16T02:46:54;13.10;;;5.00;;
72117;SDS011;59992;47.490;8.736;2024-01-16T02:49:45;15.20;;;6.50;;
72117;SDS011;59992;47.490;8.736;2024-01-16T02:52:35;18.30;;;6.50;;
72117;SDS011;59992;47.490;8.736;2024-01-16T02:55:27;13.80;;;5.30;;
72117;SDS011;59992;47.490;8.736;2024-01-16T02:58:18;11.30;;;4.90;;
72117;SDS011;59992;47.490;8.736;2024-01-16T03:01:09;11.20;;;4.30;;
72117;SDS011;59992;47.490;8.736;2024-01-16T03:03:59;10.30;;;4.00;;
72117;SDS011;59992;47.490;8.736;2024-01-16T03:06:50;11.20;;;4.00;;
72117;SDS011;59992;47.490;8.736;2024-01-16T03:09:41;10.50;;;3.50;;
72117;SDS011;59992;47.490;8.736;2024-01-16T03:12:31;14.90;;;5.50;;
72117;SDS011;59992;47.490;8.736;2024-01-16T03:15:21;12.50;;;4.40;;
72117;SDS011;59992;47.490;8.736;2024-01-16T03:18:12;13.80;;;4.50;;
72117;SDS011;59992;47.490;8.736;2024-01-16T03:21:02;10.30;;;4.50;;
72117;SDS011;59992;47.490;8.736;2024-01-16T03:23:54;11.70;;;4.90;;
72117;SDS011;59992;47.490;8.736;2024-01-16T03:26:44;8.30;;;4.10;;
72117;SDS011;59992;47.490;8.736;2024-01-16T03:29:35;9.50;;;3.50;;
72117;SDS011;59992;47.490;8.736;2024-01-16T03:32:25;9.80;;;3.80;;
72117;SDS011;59992;47.490;8.736;2024-01-16T03:35:17;10.20;;;4.50;;
72117;SDS011;59992;47.490;8.736;2024-01-16T03:38:08;9.60;;;3.90;;
72117;SDS011;59992;47.490;8.736;2024-01-16T03:40:58;11.00;;;3.90;;
72117;SDS011;59992;47.490;8.736;2024-01-16T03:43:48;10.50;;;4.10;;
72117;SDS011;59992;47.490;8.736;2024-01-16T03:46:39;9.80;;;3.50;;
72117;SDS011;59992;47.490;8.736;2024-01-16T03:49:30;11.80;;;4.90;;
72117;SDS011;59992;47.490;8.736;2024-01-16T03:52:20;14.60;;;6.80;;
72117;SDS011;59992;47.490;8.736;2024-01-16T03:55:10;11.00;;;5.20;;
72117;SDS011;59992;47.490;8.736;2024-01-16T03:58:00;10.00;;;3.90;;
72117;SDS011;59992;47.490;8.736;2024-01-16T04:00:51;12.20;;;4.50;;
72117;SDS011;59992;47.490;8.736;2024-01-16T04:03:41;9.60;;;4.00;;
72117;SDS011;59992;47.490;8.736;2024-01-16T04:06:31;13.40;;;4.50;;
72117;SDS011;59992;47.490;8.736;2024-01-16T04:09:21;10.50;;;3.60;;
72117;SDS011;59992;47.490;8.736;2024-01-16T04:12:12;15.20;;;5.60;;
72117;SDS011;59992;47.490;8.736;2024-01-16T04:15:02;12.50;;;5.30;;
72117;SDS011;59992;47.490;8.736;2024-01-16T04:17:53;13.40;;;5.10;;
72117;SDS011;59992;47.490;8.736;2024-01-16T04:20:43;11.20;;;4.70;;
72117;SDS011;59992;47.490;8.736;2024-01-16T04:23:33;8.10;;;3.90;;
72117;SDS011;59992;47.490;8.736;2024-01-16T04:26:24;9.40;;;3.60;;
72117;SDS011;59992;47.490;8.736;2024-01-16T04:29:14;9.80;;;4.00;;
72117;SDS011;59992;47.490;8.736;2024-01-16T04:32:05;10.50;;;4.10;;
72117;SDS011;59992;47.490;8.736;2024-01-16T04:34:56;9.90;;;3.60;;
72117;SDS011;59992;47.490;8.736;2024-01-16T04:37:46;11.40;;;4.10;;
72117;SDS011;59992;47.490;8.736;2024-01-16T04:40:37;14.50;;;3.90;;
72117;SDS011;59992;47.490;8.736;2024-01-16T04:43:27;13.10;;;5.50;;
72117;SDS011;59992;47.490;8.736;2024-01-16T04:46:18;11.00;;;4.50;;
72117;SDS011;59992;47.490;8.736;2024-01-16T04:49:08;12.50;;;4.70;;
72117;SDS011;59992;47.490;8.736;2024-01-16T04:51:59;9.60;;;3.60;;
72117;SDS011;59992;47.490;8.736;2024-01-16T04:54:50;9.50;;;3.60;;
72117;SDS011;59992;47.490;8.736;2024-01-16T04:57:41;9.30;;;3.50;;
72117;SDS011;59992;47.490;8.736;2024-01-16T05:00:31;10.20;;;3.80;;
72117;SDS011;59992;47.490;8.736;2024-01-16T05:03:21;7.40;;;3.50;;
72117;SDS011;59992;47.490;8.736;2024-01-16T05:06:15;7.90;;;4.00;;
72117;SDS011;59992;47.490;8.736;2024-01-16T05:09:05;10.00;;;3.80;;
72117;SDS011;59992;47.490;8.736;2024-01-16T05:11:56;7.80;;;3.50;;
72117;SDS011;59992;47.490;8.736;2024-01-16T05:14:46;9.10;;;3.40;;
72117;SDS011;59992;47.490;8.736;2024-01-16T05:17:39;10.10;;;4.10;;
72117;SDS011;59992;47.490;8.736;2024-01-16T05:20:30;9.60;;;3.70;;
72117;SDS011;59992;47.490;8.736;2024-01-16T05:23:21;11.80;;;5.30;;
72117;SDS011;59992;47.490;8.736;2024-01-16T05:26:11;13.30;;;5.20;;
72117;SDS011;59992;47.490;8.736;2024-01-16T05:29:01;13.30;;;5.10;;
72117;SDS011;59992;47.490;8.736;2024-01-16T05:31:51;12.30;;;5.50;;
72117;SDS011;59992;47.490;8.736;2024-01-16T05:34:42;11.00;;;4.90;;
72117;SDS011;59992;47.490;8.736;2024-01-16T05:37:33;13.20;;;5.40;;
72117;SDS011;59992;47.490;8.736;2024-01-16T05:40:25;12.50;;;5.70;;
72117;SDS011;59992;47.490;8.736;2024-01-16T05:43:15;14.80;;;6.00;;
72117;SDS011;59992;47.490;8.736;2024-01-16T05:46:05;10.40;;;4.40;;
72117;SDS011;59992;47.490;8.736;2024-01-16T05:48:56;8.80;;;3.80;;
72117;SDS011;59992;47.490;8.736;2024-01-16T05:51:46;8.50;;;3.70;;
72117;SDS011;59992;47.490;8.736;2024-01-16T05:54:36;10.30;;;3.30;;
72117;SDS011;59992;47.490;8.736;2024-01-16T05:57:26;10.50;;;3.50;;
72117;SDS011;59992;47.490;8.736;2024-01-16T06:00:19;8.30;;;3.00;;
72117;SDS011;59992;47.490;8.736;2024-01-16T06:03:10;8.00;;;3.20;;
72117;SDS011;59992;47.490;8.736;2024-01-16T06:06:00;8.80;;;3.80;;
72117;SDS011;59992;47.490;8.736;2024-01-16T06:08:51;8.50;;;3.50;;
72117;SDS011;59992;47.490;8.736;2024-01-16T06:11:41;11.60;;;4.70;;
72117;SDS011;59992;47.490;8.736;2024-01-16T06:14:31;7.90;;;3.80;;
72117;SDS011;59992;47.490;8.736;2024-01-16T06:17:21;8.10;;;3.80;;
72117;SDS011;59992;47.490;8.736;2024-01-16T06:20:12;11.40;;;4.70;;
72117;SDS011;59992;47.490;8.736;2024-01-16T06:23:03;12.30;;;4.10;;
72117;SDS011;59992;47.490;8.736;2024-01-16T06:25:54;10.00;;;4.30;;
72117;SDS011;59992;47.490;8.736;2024-01-16T06:28:44;7.70;;;3.60;;
72117;SDS011;59992;47.490;8.736;2024-01-16T06:31:34;8.90;;;3.10;;
72117;SDS011;59992;47.490;8.736;2024-01-16T06:34:26;8.10;;;3.30;;
72117;SDS011;59992;47.490;8.736;2024-01-16T06:37:17;8.60;;;3.40;;
72117;SDS011;59992;47.490;8.736;2024-01-16T06:40:11;8.50;;;3.30;;
72117;SDS011;59992;47.490;8.736;2024-01-16T06:43:02;7.90;;;3.50;;
72117;SDS011;59992;47.490;8.736;2024-01-16T06:45:53;8.50;;;3.50;;
72117;SDS011;59992;47.490;8.736;2024-01-16T06:48:43;7.90;;;3.30;;
72117;SDS011;59992;47.490;8.736;2024-01-16T06:51:36;9.90;;;3.70;;
72117;SDS011;59992;47.490;8.736;2024-01-16T06:54:26;7.60;;;2.90;;
72117;SDS011;59992;47.490;8.736;2024-01-16T06:57:17;9.70;;;3.00;;
72117;SDS011;59992;47.490;8.736;2024-01-16T07:00:08;7.60;;;2.70;;
72117;SDS011;59992;47.490;8.736;2024-01-16T07:03:00;6.10;;;2.70;;
72117;SDS011;59992;47.490;8.736;2024-01-16T07:05:51;6.70;;;3.20;;
72117;SDS011;59992;47.490;8.736;2024-01-16T07:08:41;7.50;;;3.00;;
72117;SDS011;59992;47.490;8.736;2024-01-16T07:11:31;6.90;;;3.00;;
72117;SDS011;59992;47.490;8.736;2024-01-16T07:14:21;7.10;;;2.80;;
72117;SDS011;59992;47.490;8.736;2024-01-16T07:17:12;6.30;;;2.50;;
72117;SDS011;59992;47.490;8.736;2024-01-16T07:20:03;8.20;;;2.50;;
72117;SDS011;59992;47.490;8.736;2024-01-16T07:22:55;5.90;;;2.70;;
72117;SDS011;59992;47.490;8.736;2024-01-16T07:25:45;6.50;;;3.20;;
72117;SDS011;59992;47.490;8.736;2024-01-16T07:28:35;7.20;;;3.00;;
72117;SDS011;59992;47.490;8.736;2024-01-16T07:31:26;7.20;;;3.00;;
72117;SDS011;59992;47.490;8.736;2024-01-16T07:34:16;8.00;;;3.40;;
72117;SDS011;59992;47.490;8.736;2024-01-16T07:37:09;6.10;;;2.80;;
72117;SDS011;59992;47.490;8.736;2024-01-16T07:39:59;9.40;;;3.60;;
72117;SDS011;59992;47.490;8.736;2024-01-16T07:42:50;8.90;;;3.70;;
72117;SDS011;59992;47.490;8.736;2024-01-16T07:45:41;8.90;;;3.60;;
72117;SDS011;59992;47.490;8.736;2024-01-16T07:48:31;9.00;;;3.60;;
72117;SDS011;59992;47.490;8.736;2024-01-16T07:51:24;10.00;;;4.40;;
72117;SDS011;59992;47.490;8.736;2024-01-16T07:54:15;10.40;;;3.90;;
72117;SDS011;59992;47.490;8.736;2024-01-16T07:57:05;11.80;;;4.50;;
72117;SDS011;59992;47.490;8.736;2024-01-16T07:59:56;14.30;;;5.80;;
72117;SDS011;59992;47.490;8.736;2024-01-16T08:02:46;11.70;;;4.70;;
72117;SDS011;59992;47.490;8.736;2024-01-16T08:05:36;11.70;;;5.00;;
72117;SDS011;59992;47.490;8.736;2024-01-16T08:08:27;11.20;;;5.50;;
72117;SDS011;59992;47.490;8.736;2024-01-16T08:11:19;14.70;;;6.30;;
72117;SDS011;59992;47.490;8.736;2024-01-16T08:14:09;18.50;;;7.70;;
72117;SDS011;59992;47.490;8.736;2024-01-16T08:16:59;15.20;;;7.20;;
72117;SDS011;59992;47.490;8.736;2024-01-16T08:19:50;16.70;;;8.20;;
72117;SDS011;59992;47.490;8.736;2024-01-16T08:22:40;14.60;;;6.20;;
72117;SDS011;59992;47.490;8.736;2024-01-16T08:25:31;18.90;;;8.10;;
72117;SDS011;59992;47.490;8.736;2024-01-16T08:28:21;15.80;;;6.40;;
72117;SDS011;59992;47.490;8.736;2024-01-16T08:31:12;15.10;;;7.30;;
72117;SDS011;59992;47.490;8.736;2024-01-16T08:34:04;14.80;;;5.90;;
72117;SDS011;59992;47.490;8.736;2024-01-16T08:36:55;19.00;;;7.90;;
72117;SDS011;59992;47.490;8.736;2024-01-16T08:39:45;12.00;;;6.70;;
72117;SDS011;59992;47.490;8.736;2024-01-16T08:42:36;15.30;;;6.50;;
72117;SDS011;59992;47.490;8.736;2024-01-16T08:45:26;16.30;;;7.50;;
72117;SDS011;59992;47.490;8.736;2024-01-16T08:48:16;14.80;;;6.40;;
72117;SDS011;59992;47.490;8.736;2024-01-16T08:51:06;14.60;;;6.80;;
72117;SDS011;59992;47.490;8.736;2024-01-16T08:54:01;18.70;;;8.10;;
72117;SDS011;59992;47.490;8.736;2024-01-16T08:56:52;23.40;;;9.20;;
72117;SDS011;59992;47.490;8.736;2024-01-16T08:59:42;24.70;;;9.80;;
72117;SDS011;59992;47.490;8.736;2024-01-16T09:02:32;28.80;;;11.30;;
72117;SDS011;59992;47.490;8.736;2024-01-16T09:05:23;34.10;;;12.10;;
72117;SDS011;59992;47.490;8.736;2024-01-16T09:08:14;28.10;;;10.40;;
72117;SDS011;59992;47.490;8.736;2024-01-16T09:11:04;38.40;;;13.50;;
72117;SDS011;59992;47.490;8.736;2024-01-16T09:13:54;39.40;;;14.60;;
72117;SDS011;59992;47.490;8.736;2024-01-16T09:16:44;29.40;;;11.90;;
72117;SDS011;59992;47.490;8.736;2024-01-16T09:19:35;38.60;;;15.50;;
72117;SDS011;59992;47.490;8.736;2024-01-16T09:22:26;40.90;;;14.10;;
72117;SDS011;59992;47.490;8.736;2024-01-16T09:25:16;42.40;;;15.80;;
72117;SDS011;59992;47.490;8.736;2024-01-16T09:28:08;34.80;;;14.90;;
72117;SDS011;59992;47.490;8.736;2024-01-16T09:30:59;36.30;;;15.60;;
72117;SDS011;59992;47.490;8.736;2024-01-16T09:33:50;31.70;;;13.30;;
72117;SDS011;59992;47.490;8.736;2024-01-16T09:36:40;30.90;;;14.10;;
72117;SDS011;59992;47.490;8.736;2024-01-16T09:39:31;21.20;;;9.70;;
72117;SDS011;59992;47.490;8.736;2024-01-16T09:42:25;28.80;;;12.10;;
72117;SDS011;59992;47.490;8.736;2024-01-16T09:45:19;19.10;;;9.30;;
72117;SDS011;59992;47.490;8.736;2024-01-16T09:48:10;23.00;;;11.10;;
72117;SDS011;59992;47.490;8.736;2024-01-16T09:51:02;23.00;;;10.10;;
72117;SDS011;59992;47.490;8.736;2024-01-16T09:53:52;21.40;;;10.80;;
72117;SDS011;59992;47.490;8.736;2024-01-16T09:56:43;23.80;;;10.10;;
72117;SDS011;59992;47.490;8.736;2024-01-16T09:59:36;21.60;;;9.40;;
72117;SDS011;59992;47.490;8.736;2024-01-16T10:02:28;17.70;;;9.00;;
72117;SDS011;59992;47.490;8.736;2024-01-16T10:05:20;22.10;;;9.50;;
72117;SDS011;59992;47.490;8.736;2024-01-16T10:08:11;14.70;;;8.10;;
72117;SDS011;59992;47.490;8.736;2024-01-16T10:11:01;16.20;;;8.30;;
72117;SDS011;59992;47.490;8.736;2024-01-16T10:13:52;18.60;;;9.40;;
72117;SDS011;59992;47.490;8.736;2024-01-16T10:16:59;13.80;;;7.20;;
72117;SDS011;59992;47.490;8.736;2024-01-16T10:19:53;14.50;;;7.80;;
72117;SDS011;59992;47.490;8.736;2024-01-16T10:22:53;18.00;;;8.90;;
72117;SDS011;59992;47.490;8.736;2024-01-16T10:25:46;18.60;;;9.00;;
72117;SDS011;59992;47.490;8.736;2024-01-16T10:28:56;18.90;;;8.40;;
72117;SDS011;59992;47.490;8.736;2024-01-16T10:31:53;17.80;;;9.50;;
72117;SDS011;59992;47.490;8.736;2024-01-16T10:34:44;18.50;;;8.80;;
72117;SDS011;59992;47.490;8.736;2024-01-16T10:37:45;18.50;;;8.60;;
72117;SDS011;59992;47.490;8.736;2024-01-16T10:40:37;20.40;;;9.60;;
72117;SDS011;59992;47.490;8.736;2024-01-16T10:43:27;26.20;;;9.80;;
72117;SDS011;59992;47.490;8.736;2024-01-16T10:46:17;14.80;;;8.40;;
72117;SDS011;59992;47.490;8.736;2024-01-16T10:49:08;17.70;;;7.90;;
72117;SDS011;59992;47.490;8.736;2024-01-16T10:51:58;16.80;;;9.20;;
72117;SDS011;59992;47.490;8.736;2024-01-16T10:54:49;19.00;;;9.90;;
72117;SDS011;59992;47.490;8.736;2024-01-16T10:57:39;16.90;;;8.40;;
72117;SDS011;59992;47.490;8.736;2024-01-16T11:00:30;16.80;;;8.60;;
72117;SDS011;59992;47.490;8.736;2024-01-16T11:03:28;15.10;;;7.70;;
72117;SDS011;59992;47.490;8.736;2024-01-16T11:06:23;16.80;;;8.20;;
72117;SDS011;59992;47.490;8.736;2024-01-16T11:09:14;18.70;;;9.30;;
72117;SDS011;59992;47.490;8.736;2024-01-16T11:12:05;16.40;;;8.60;;
72117;SDS011;59992;47.490;8.736;2024-01-16T11:14:58;18.50;;;9.00;;
72117;SDS011;59992;47.490;8.736;2024-01-16T11:17:55;17.10;;;8.60;;
72117;SDS011;59992;47.490;8.736;2024-01-16T11:20:46;16.20;;;8.80;;
72117;SDS011;59992;47.490;8.736;2024-01-16T11:23:37;16.70;;;8.70;;
72117;SDS011;59992;47.490;8.736;2024-01-16T11:26:28;19.90;;;9.30;;
72117;SDS011;59992;47.490;8.736;2024-01-16T11:29:35;17.60;;;9.30;;
72117;SDS011;59992;47.490;8.736;2024-01-16T11:32:35;17.10;;;9.00;;
72117;SDS011;59992;47.490;8.736;2024-01-16T11:35:34;15.10;;;7.30;;
72117;SDS011;59992;47.490;8.736;2024-01-16T11:38:25;16.70;;;9.20;;
72117;SDS011;59992;47.490;8.736;2024-01-16T11:44:42;15.30;;;8.40;;
72117;SDS011;59992;47.490;8.736;2024-01-16T11:47:34;19.20;;;9.10;;
72117;SDS011;59992;47.490;8.736;2024-01-16T11:50:28;17.30;;;8.70;;
72117;SDS011;59992;47.490;8.736;2024-01-16T11:53:37;16.60;;;8.60;;
72117;SDS011;59992;47.490;8.736;2024-01-16T11:56:38;18.20;;;9.50;;
72117;SDS011;59992;47.490;8.736;2024-01-16T11:59:53;19.60;;;9.20;;
72117;SDS011;59992;47.490;8.736;2024-01-16T12:02:52;17.20;;;8.40;;
72117;SDS011;59992;47.490;8.736;2024-01-16T12:05:45;19.00;;;9.40;;
72117;SDS011;59992;47.490;8.736;2024-01-16T12:08:48;20.60;;;9.30;;
72117;SDS011;59992;47.490;8.736;2024-01-16T12:11:39;21.40;;;9.60;;
72117;SDS011;59992;47.490;8.736;2024-01-16T12:14:30;18.80;;;9.30;;
72117;SDS011;59992;47.490;8.736;2024-01-16T12:17:21;15.80;;;8.50;;
72117;SDS011;59992;47.490;8.736;2024-01-16T12:20:18;22.40;;;10.30;;
72117;SDS011;59992;47.490;8.736;2024-01-16T12:23:09;19.70;;;9.20;;
72117;SDS011;59992;47.490;8.736;2024-01-16T12:26:00;18.00;;;8.50;;
72117;SDS011;59992;47.490;8.736;2024-01-16T12:28:51;15.30;;;8.70;;
72117;SDS011;59992;47.490;8.736;2024-01-16T12:31:42;18.00;;;9.40;;
72117;SDS011;59992;47.490;8.736;2024-01-16T12:34:32;18.40;;;8.10;;
72117;SDS011;59992;47.490;8.736;2024-01-16T12:37:22;15.40;;;8.30;;
72117;SDS011;59992;47.490;8.736;2024-01-16T12:40:13;17.30;;;8.00;;
72117;SDS011;59992;47.490;8.736;2024-01-16T12:43:04;18.00;;;9.00;;
72117;SDS011;59992;47.490;8.736;2024-01-16T12:45:56;16.50;;;7.60;;
72117;SDS011;59992;47.490;8.736;2024-01-16T12:48:46;17.60;;;8.30;;
72117;SDS011;59992;47.490;8.736;2024-01-16T12:51:37;19.30;;;9.10;;
72117;SDS011;59992;47.490;8.736;2024-01-16T12:54:27;16.50;;;8.00;;
72117;SDS011;59992;47.490;8.736;2024-01-16T12:57:18;17.60;;;8.70;;
72117;SDS011;59992;47.490;8.736;2024-01-16T13:00:21;18.10;;;8.90;;
72117;SDS011;59992;47.490;8.736;2024-01-16T13:03:16;18.50;;;9.10;;
72117;SDS011;59992;47.490;8.736;2024-01-16T13:06:07;17.20;;;8.10;;
72117;SDS011;59992;47.490;8.736;2024-01-16T13:09:05;15.50;;;8.80;;
72117;SDS011;59992;47.490;8.736;2024-01-16T13:11:57;16.80;;;7.70;;
72117;SDS011;59992;47.490;8.736;2024-01-16T13:14:47;15.70;;;8.10;;
72117;SDS011;59992;47.490;8.736;2024-01-16T13:17:38;18.20;;;8.30;;
72117;SDS011;59992;47.490;8.736;2024-01-16T13:20:28;18.50;;;8.40;;
72117;SDS011;59992;47.490;8.736;2024-01-16T13:23:19;18.50;;;8.10;;
72117;SDS011;59992;47.490;8.736;2024-01-16T13:26:09;15.90;;;8.50;;
72117;SDS011;59992;47.490;8.736;2024-01-16T13:29:00;16.40;;;8.00;;
72117;SDS011;59992;47.490;8.736;2024-01-16T13:31:51;14.30;;;7.60;;
72117;SDS011;59992;47.490;8.736;2024-01-16T13:34:42;15.60;;;8.50;;
72117;SDS011;59992;47.490;8.736;2024-01-16T13:37:37;18.30;;;8.70;;
72117;SDS011;59992;47.490;8.736;2024-01-16T13:40:28;19.90;;;9.70;;
72117;SDS011;59992;47.490;8.736;2024-01-16T13:43:18;18.00;;;8.70;;
72117;SDS011;59992;47.490;8.736;2024-01-16T13:46:08;20.80;;;10.00;;
72117;SDS011;59992;47.490;8.736;2024-01-16T13:49:01;19.60;;;9.40;;
72117;SDS011;59992;47.490;8.736;2024-01-16T13:51:53;19.60;;;9.80;;
72117;SDS011;59992;47.490;8.736;2024-01-16T13:54:44;18.00;;;9.40;;
72117;SDS011;59992;47.490;8.736;2024-01-16T13:57:35;22.80;;;11.80;;
72117;SDS011;59992;47.490;8.736;2024-01-16T14:00:26;20.40;;;9.80;;
72117;SDS011;59992;47.490;8.736;2024-01-16T14:03:16;18.40;;;9.30;;
72117;SDS011;59992;47.490;8.736;2024-01-16T14:06:07;21.30;;;9.50;;
72117;SDS011;59992;47.490;8.736;2024-01-16T14:08:57;18.60;;;9.60;;
72117;SDS011;59992;47.490;8.736;2024-01-16T14:11:47;21.30;;;10.20;;
72117;SDS011;59992;47.490;8.736;2024-01-16T14:14:38;20.10;;;9.20;;
72117;SDS011;59992;47.490;8.736;2024-01-16T14:17:30;20.40;;;10.30;;
72117;SDS011;59992;47.490;8.736;2024-01-16T14:20:22;22.30;;;10.00;;
72117;SDS011;59992;47.490;8.736;2024-01-16T14:23:14;20.60;;;10.10;;
72117;SDS011;59992;47.490;8.736;2024-01-16T14:26:04;17.80;;;9.60;;
72117;SDS011;59992;47.490;8.736;2024-01-16T14:28:55;21.50;;;9.90;;
72117;SDS011;59992;47.490;8.736;2024-01-16T14:31:46;18.30;;;9.60;;
72117;SDS011;59992;47.490;8.736;2024-01-16T14:34:37;19.60;;;9.10;;
72117;SDS011;59992;47.490;8.736;2024-01-16T14:37:27;21.70;;;9.90;;
72117;SDS011;59992;47.490;8.736;2024-01-16T14:40:17;22.80;;;10.60;;
72117;SDS011;59992;47.490;8.736;2024-01-16T14:43:12;22.80;;;8.90;;
72117;SDS011;59992;47.490;8.736;2024-01-16T14:46:03;20.50;;;9.50;;
72117;SDS011;59992;47.490;8.736;2024-01-16T14:48:58;19.90;;;9.00;;
72117;SDS011;59992;47.490;8.736;2024-01-16T14:51:49;16.70;;;8.90;;
72117;SDS011;59992;47.490;8.736;2024-01-16T14:54:39;16.90;;;7.40;;
72117;SDS011;59992;47.490;8.736;2024-01-16T14:57:29;15.00;;;7.10;;
72117;SDS011;59992;47.490;8.736;2024-01-16T15:00:25;17.70;;;8.20;;
72117;SDS011;59992;47.490;8.736;2024-01-16T15:03:15;16.30;;;7.60;;
72117;SDS011;59992;47.490;8.736;2024-01-16T15:06:06;14.30;;;7.10;;
72117;SDS011;59992;47.490;8.736;2024-01-16T15:08:59;14.00;;;6.40;;
72117;SDS011;59992;47.490;8.736;2024-01-16T15:11:51;15.80;;;6.10;;
72117;SDS011;59992;47.490;8.736;2024-01-16T15:14:41;11.90;;;6.20;;
72117;SDS011;59992;47.490;8.736;2024-01-16T15:17:31;15.40;;;6.10;;
72117;SDS011;59992;47.490;8.736;2024-01-16T15:20:23;19.00;;;6.70;;
72117;SDS011;59992;47.490;8.736;2024-01-16T15:23:13;13.90;;;6.00;;
72117;SDS011;59992;47.490;8.736;2024-01-16T15:26:04;14.70;;;6.50;;
72117;SDS011;59992;47.490;8.736;2024-01-16T15:28:54;15.20;;;6.90;;
72117;SDS011;59992;47.490;8.736;2024-01-16T15:31:44;14.80;;;6.50;;
72117;SDS011;59992;47.490;8.736;2024-01-16T15:34:35;17.80;;;6.50;;
72117;SDS011;59992;47.490;8.736;2024-01-16T15:37:25;15.10;;;6.30;;
72117;SDS011;59992;47.490;8.736;2024-01-16T15:40:17;16.20;;;7.40;;
72117;SDS011;59992;47.490;8.736;2024-01-16T15:43:08;16.90;;;7.20;;
72117;SDS011;59992;47.490;8.736;2024-01-16T15:45:59;20.00;;;7.40;;
72117;SDS011;59992;47.490;8.736;2024-01-16T15:48:49;12.90;;;6.20;;
72117;SDS011;59992;47.490;8.736;2024-01-16T15:51:39;14.30;;;6.70;;
72117;SDS011;59992;47.490;8.736;2024-01-16T15:54:29;15.40;;;5.80;;
72117;SDS011;59992;47.490;8.736;2024-01-16T15:57:19;13.90;;;5.60;;
72117;SDS011;59992;47.490;8.736;2024-01-16T16:00:10;13.20;;;5.40;;
72117;SDS011;59992;47.490;8.736;2024-01-16T16:03:03;12.60;;;5.30;;
72117;SDS011;59992;47.490;8.736;2024-01-16T16:05:53;11.10;;;5.50;;
72117;SDS011;59992;47.490;8.736;2024-01-16T16:08:44;11.30;;;4.80;;
72117;SDS011;59992;47.490;8.736;2024-01-16T16:11:34;12.50;;;4.80;;
72117;SDS011;59992;47.490;8.736;2024-01-16T16:14:26;11.30;;;4.70;;
72117;SDS011;59992;47.490;8.736;2024-01-16T16:17:19;10.80;;;5.30;;
72117;SDS011;59992;47.490;8.736;2024-01-16T16:20:10;9.90;;;4.20;;
72117;SDS011;59992;47.490;8.736;2024-01-16T16:23:02;9.10;;;4.80;;
72117;SDS011;59992;47.490;8.736;2024-01-16T16:25:53;11.70;;;5.10;;
72117;SDS011;59992;47.490;8.736;2024-01-16T16:28:43;11.60;;;5.10;;
72117;SDS011;59992;47.490;8.736;2024-01-16T16:31:33;10.70;;;4.40;;
72117;SDS011;59992;47.490;8.736;2024-01-16T16:34:24;9.00;;;4.40;;
72117;SDS011;59992;47.490;8.736;2024-01-16T16:37:14;11.60;;;4.60;;
72117;SDS011;59992;47.490;8.736;2024-01-16T16:40:05;8.70;;;4.40;;
72117;SDS011;59992;47.490;8.736;2024-01-16T16:42:59;11.70;;;5.30;;
72117;SDS011;59992;47.490;8.736;2024-01-16T16:45:51;11.70;;;4.90;;
72117;SDS011;59992;47.490;8.736;2024-01-16T16:48:41;9.10;;;4.30;;
72117;SDS011;59992;47.490;8.736;2024-01-16T16:51:33;11.00;;;5.00;;
72117;SDS011;59992;47.490;8.736;2024-01-16T16:54:29;12.70;;;4.90;;
72117;SDS011;59992;47.490;8.736;2024-01-16T16:57:19;15.40;;;5.80;;
72117;SDS011;59992;47.490;8.736;2024-01-16T17:00:11;12.30;;;4.50;;
72117;SDS011;59992;47.490;8.736;2024-01-16T17:03:03;13.30;;;5.40;;